Thunder radar more information blitzortung!


Radar de pluja more information rain snow radar


Visita la nostra xarxa de llocs de meteo:

Template documentation
and downloads

And another site



No particular awareness of the weather is required.    There are no Weather-warnings

Pagina Historial Weather Underground text

Diari Resum Agost 8, 2017 Unitats:  Tant    Imperial   Mètric
« Previous Dia
SegĂźent Dia »
Diari Setmana Mensual Anual Personalitzada
  Maxima: Minima: Media:
Temperatura: 83.5 °F /  28.6 °C 67.1 °F /  19.5 °C 76.5 °F /  24.7 °C
Punt de rosada: 73 °F /  22.8 °C 56.1 °F /  13.4 °C 64 °F /  17.8 °C
Humitat: 80 % 50 % 66 %
Wind Speed: 16.1 mph /  25.9 km/h - 5 mph /  8 km/h
RĂ fegues de vent: 16.1 mph /  25.9 km/h - -
Vent:- - East
Pression baro: 30 in /  1014.8 hPa 29.7 in /  1007.0 hPa -
Precipitacions: 0 in /  0.0 mm    
Historical Graphs
 
 
Dades de taula per Agost 8, 2017
Temps Temperatura Punt de rosada Pression baro Vent Wind Speed RĂ fegues de vent Humitat Rainfall Rate (Hourly)
00:03 77 °F /  25.0 °C 66.6 °F /  19.2 °C 29.8 in /  1010.0 hPa North 3.5 mph /  5.6 km/h 3.5 mph /  5.6 km/h 70 % 0 in /  0.0 mm
00:05 77 °F /  25.0 °C 69.6 °F /  20.9 °C 29.8 in /  1008.0 hPa North 2 mph /  3.2 km/h 4 mph /  6.4 km/h 78 % 0 in /  0.0 mm
00:08 77 °F /  25.0 °C 66.6 °F /  19.2 °C 29.8 in /  1010.0 hPa NNE 2.3 mph /  3.7 km/h 2.3 mph /  3.7 km/h 70 % 0 in /  0.0 mm
00:15 77 °F /  25.0 °C 70 °F /  21.1 °C 29.8 in /  1008.0 hPa NNE 3 mph /  4.8 km/h 6 mph /  9.7 km/h 79 % 0 in /  0.0 mm
00:25 76.8 °F /  24.9 °C 70.2 °F /  21.2 °C 29.7 in /  1007.0 hPa NE 2 mph /  3.2 km/h 3 mph /  4.8 km/h 80 % 0 in /  0.0 mm
00:35 77 °F /  25.0 °C 70.3 °F /  21.3 °C 29.7 in /  1007.0 hPa NE 1 mph /  1.6 km/h 3 mph /  4.8 km/h 80 % 0 in /  0.0 mm
00:45 77 °F /  25.0 °C 70 °F /  21.1 °C 29.7 in /  1007.0 hPa NE 2 mph /  3.2 km/h 3 mph /  4.8 km/h 79 % 0 in /  0.0 mm
00:55 77.2 °F /  25.1 °C 70.5 °F /  21.4 °C 29.7 in /  1007.0 hPa NE 2 mph /  3.2 km/h 4 mph /  6.4 km/h 80 % 0 in /  0.0 mm
01:05 77.2 °F /  25.1 °C 70.5 °F /  21.4 °C 29.7 in /  1007.0 hPa NE 2 mph /  3.2 km/h 3 mph /  4.8 km/h 80 % 0 in /  0.0 mm
01:15 77.2 °F /  25.1 °C 70.5 °F /  21.4 °C 29.7 in /  1007.0 hPa NE 1 mph /  1.6 km/h 2 mph /  3.2 km/h 80 % 0 in /  0.0 mm
01:25 77.2 °F /  25.1 °C 70.5 °F /  21.4 °C 29.7 in /  1007.0 hPa NE 1 mph /  1.6 km/h 3 mph /  4.8 km/h 80 % 0 in /  0.0 mm
01:35 77.4 °F /  25.2 °C 70.7 °F /  21.5 °C 29.7 in /  1007.0 hPa NE 2 mph /  3.2 km/h 2 mph /  3.2 km/h 80 % 0 in /  0.0 mm
01:45 77.4 °F /  25.2 °C 70.7 °F /  21.5 °C 29.7 in /  1007.0 hPa ENE 2 mph /  3.2 km/h 3 mph /  4.8 km/h 80 % 0 in /  0.0 mm
01:55 77.2 °F /  25.1 °C 70.2 °F /  21.2 °C 29.7 in /  1007.0 hPa ENE 2 mph /  3.2 km/h 2 mph /  3.2 km/h 79 % 0 in /  0.0 mm
02:05 77.2 °F /  25.1 °C 70.2 °F /  21.2 °C 29.7 in /  1007.0 hPa NE 1 mph /  1.6 km/h 3 mph /  4.8 km/h 79 % 0 in /  0.0 mm
02:15 76.8 °F /  24.9 °C 69.4 °F /  20.8 °C 29.7 in /  1007.0 hPa NE 3 mph /  4.8 km/h 3 mph /  4.8 km/h 78 % 0 in /  0.0 mm
02:25 76.8 °F /  24.9 °C 69.1 °F /  20.6 °C 29.8 in /  1008.0 hPa NNE 1 mph /  1.6 km/h 2 mph /  3.2 km/h 77 % 0 in /  0.0 mm
02:35 76.6 °F /  24.8 °C 68.9 °F /  20.5 °C 29.8 in /  1008.0 hPa North 1 mph /  1.6 km/h 3 mph /  4.8 km/h 77 % 0 in /  0.0 mm
02:45 76.6 °F /  24.8 °C 68.5 °F /  20.3 °C 29.8 in /  1008.0 hPa NNE 2 mph /  3.2 km/h 2 mph /  3.2 km/h 76 % 0 in /  0.0 mm
02:55 76.8 °F /  24.9 °C 68.7 °F /  20.4 °C 29.8 in /  1008.0 hPa NE 2 mph /  3.2 km/h 3 mph /  4.8 km/h 76 % 0 in /  0.0 mm
03:05 77 °F /  25.0 °C 68.2 °F /  20.1 °C 29.8 in /  1008.0 hPa NNE 1 mph /  1.6 km/h 2 mph /  3.2 km/h 74 % 0 in /  0.0 mm
03:15 77 °F /  25.0 °C 67.6 °F /  19.8 °C 29.8 in /  1008.0 hPa NNE 3 mph /  4.8 km/h 4 mph /  6.4 km/h 73 % 0 in /  0.0 mm
03:25 77 °F /  25.0 °C 67.6 °F /  19.8 °C 29.8 in /  1008.0 hPa NNE 3 mph /  4.8 km/h 4 mph /  6.4 km/h 73 % 0 in /  0.0 mm
03:35 77.5 °F /  25.3 °C 68.2 °F /  20.1 °C 29.8 in /  1008.0 hPa NE 3 mph /  4.8 km/h 3 mph /  4.8 km/h 73 % 0 in /  0.0 mm
03:45 77.7 °F /  25.4 °C 68.4 °F /  20.2 °C 29.8 in /  1008.0 hPa NE 2 mph /  3.2 km/h 2 mph /  3.2 km/h 73 % 0 in /  0.0 mm
03:55 79 °F /  26.1 °C 69.6 °F /  20.9 °C 29.8 in /  1008.0 hPa NE 1 mph /  1.6 km/h 2 mph /  3.2 km/h 73 % 0 in /  0.0 mm
04:05 79.2 °F /  26.2 °C 69.4 °F /  20.8 °C 29.8 in /  1008.0 hPa ENE 1 mph /  1.6 km/h 3 mph /  4.8 km/h 72 % 0 in /  0.0 mm
04:15 80.1 °F /  26.7 °C 70.2 °F /  21.2 °C 29.8 in /  1008.0 hPa NE 1 mph /  1.6 km/h 3 mph /  4.8 km/h 72 % 0 in /  0.0 mm
04:25 80.8 °F /  27.1 °C 70.5 °F /  21.4 °C 29.8 in /  1008.0 hPa NNE 2 mph /  3.2 km/h 2 mph /  3.2 km/h 71 % 0 in /  0.0 mm
09:28 80.4 °F /  26.9 °C 71.1 °F /  21.7 °C 29.8 in /  1008.0 hPa ENE 2.6 mph /  4.2 km/h 2.6 mph /  4.2 km/h 73 % 0 in /  0.0 mm
09:29 80.2 °F /  26.8 °C 70.9 °F /  21.6 °C 29.8 in /  1008.0 hPa East 3.8 mph /  6.1 km/h 3.8 mph /  6.1 km/h 73 % 0 in /  0.0 mm
09:34 80.2 °F /  26.8 °C 71.2 °F /  21.8 °C 29.8 in /  1008.0 hPa NNE 3.5 mph /  5.6 km/h 3.5 mph /  5.6 km/h 74 % 0 in /  0.0 mm
09:39 80.1 °F /  26.7 °C 71.1 °F /  21.7 °C 29.8 in /  1008.0 hPa NE 4.6 mph /  7.4 km/h 4.6 mph /  7.4 km/h 74 % 0 in /  0.0 mm
09:44 80.1 °F /  26.7 °C 71.1 °F /  21.7 °C 29.8 in /  1008.0 hPa NNE 3.6 mph /  5.8 km/h 3.6 mph /  5.8 km/h 74 % 0 in /  0.0 mm
09:49 80.6 °F /  27.0 °C 71.1 °F /  21.7 °C 29.8 in /  1008.0 hPa ENE 3.5 mph /  5.6 km/h 3.5 mph /  5.6 km/h 73 % 0 in /  0.0 mm
09:54 81 °F /  27.2 °C 71.4 °F /  21.9 °C 29.8 in /  1008.0 hPa ESE 3.5 mph /  5.6 km/h 3.5 mph /  5.6 km/h 73 % 0 in /  0.0 mm
09:59 81 °F /  27.2 °C 71.4 °F /  21.9 °C 29.8 in /  1008.0 hPa ENE 2.4 mph /  3.9 km/h 2.4 mph /  3.9 km/h 73 % 0 in /  0.0 mm
10:04 80.6 °F /  27.0 °C 71.1 °F /  21.7 °C 29.8 in /  1008.0 hPa ENE 3.5 mph /  5.6 km/h 3.5 mph /  5.6 km/h 73 % 0 in /  0.0 mm
10:09 80.4 °F /  26.9 °C 71.4 °F /  21.9 °C 29.8 in /  1008.0 hPa East 2.3 mph /  3.7 km/h 2.3 mph /  3.7 km/h 74 % 0 in /  0.0 mm
10:14 80.6 °F /  27.0 °C 71.1 °F /  21.7 °C 29.8 in /  1008.0 hPa NE 2.9 mph /  4.7 km/h 2.9 mph /  4.7 km/h 73 % 0 in /  0.0 mm
10:19 80.8 °F /  27.1 °C 71.2 °F /  21.8 °C 29.8 in /  1008.0 hPa East 2 mph /  3.2 km/h 2 mph /  3.2 km/h 73 % 0 in /  0.0 mm
10:24 81.1 °F /  27.3 °C 71.8 °F /  22.1 °C 29.8 in /  1008.0 hPa ENE 4.6 mph /  7.4 km/h 4.6 mph /  7.4 km/h 73 % 0 in /  0.0 mm
10:29 81.3 °F /  27.4 °C 71.4 °F /  21.9 °C 29.8 in /  1008.0 hPa Calm     72 % 0 in /  0.0 mm
10:34 82.8 °F /  28.2 °C 72.9 °F /  22.7 °C 29.8 in /  1009.0 hPa ENE 3.5 mph /  5.6 km/h 3.5 mph /  5.6 km/h 72 % 0 in /  0.0 mm
10:39 83.5 °F /  28.6 °C 73 °F /  22.8 °C 29.8 in /  1009.0 hPa ESE 3.1 mph /  5.0 km/h 3.1 mph /  5.0 km/h 71 % 0 in /  0.0 mm
10:44 82.8 °F /  28.2 °C 72.3 °F /  22.4 °C 29.8 in /  1009.0 hPa WSW 1.6 mph /  2.6 km/h   71 % 0 in /  0.0 mm
10:49 82.4 °F /  28.0 °C 72.5 °F /  22.5 °C 29.8 in /  1009.0 hPa NNW 3.5 mph /  5.6 km/h 3.5 mph /  5.6 km/h 72 % 0 in /  0.0 mm
10:54 81.5 °F /  27.5 °C 70 °F /  21.1 °C 29.8 in /  1009.0 hPa NE 3.5 mph /  5.6 km/h 3.5 mph /  5.6 km/h 68 % 0 in /  0.0 mm
10:59 81.3 °F /  27.4 °C 68.9 °F /  20.5 °C 29.8 in /  1009.0 hPa NE 3.5 mph /  5.6 km/h 3.5 mph /  5.6 km/h 66 % 0 in /  0.0 mm
11:04 81.3 °F /  27.4 °C 68.4 °F /  20.2 °C 29.8 in /  1009.0 hPa ESE 2.3 mph /  3.7 km/h 2.3 mph /  3.7 km/h 65 % 0 in /  0.0 mm
11:09 81 °F /  27.2 °C 68.2 °F /  20.1 °C 29.8 in /  1009.0 hPa East 5.4 mph /  8.7 km/h 5.4 mph /  8.7 km/h 65 % 0 in /  0.0 mm
11:14 79.7 °F /  26.5 °C 69.4 °F /  20.8 °C 29.8 in /  1009.0 hPa East 5.8 mph /  9.3 km/h 5.8 mph /  9.3 km/h 71 % 0 in /  0.0 mm
11:19 78.6 °F /  25.9 °C 68.7 °F /  20.4 °C 29.8 in /  1009.0 hPa ENE 8.1 mph /  13.0 km/h 8.1 mph /  13.0 km/h 72 % 0 in /  0.0 mm
11:24 77.9 °F /  25.5 °C 68.2 °F /  20.1 °C 29.8 in /  1009.0 hPa East 8.1 mph /  13.0 km/h 8.1 mph /  13.0 km/h 72 % 0 in /  0.0 mm
11:29 77.5 °F /  25.3 °C 68.2 °F /  20.1 °C 29.8 in /  1009.0 hPa East 9.2 mph /  14.8 km/h 9.2 mph /  14.8 km/h 73 % 0 in /  0.0 mm
11:34 76.8 °F /  24.9 °C 68.4 °F /  20.2 °C 29.8 in /  1010.0 hPa NE 8.1 mph /  13.0 km/h 8.1 mph /  13.0 km/h 75 % 0 in /  0.0 mm
11:39 76.3 °F /  24.6 °C 67.8 °F /  19.9 °C 29.8 in /  1010.0 hPa ESE 6.9 mph /  11.1 km/h 6.9 mph /  11.1 km/h 75 % 0 in /  0.0 mm
11:44 75.9 °F /  24.4 °C 68.2 °F /  20.1 °C 29.8 in /  1010.0 hPa ESE 8.7 mph /  14.0 km/h 8.7 mph /  14.0 km/h 77 % 0 in /  0.0 mm
11:49 75.9 °F /  24.4 °C 68.2 °F /  20.1 °C 29.8 in /  1009.0 hPa East 9.2 mph /  14.8 km/h 9.2 mph /  14.8 km/h 77 % 0 in /  0.0 mm
11:54 75.4 °F /  24.1 °C 68 °F /  20.0 °C 29.8 in /  1009.0 hPa ENE 11.5 mph /  18.5 km/h 11.5 mph /  18.5 km/h 78 % 0 in /  0.0 mm
11:59 75.2 °F /  24.0 °C 68.2 °F /  20.1 °C 29.8 in /  1009.0 hPa ESE 10.4 mph /  16.7 km/h 10.4 mph /  16.7 km/h 79 % 0 in /  0.0 mm
12:04 75.2 °F /  24.0 °C 68.2 °F /  20.1 °C 29.8 in /  1010.0 hPa NE 12.7 mph /  20.4 km/h 12.7 mph /  20.4 km/h 79 % 0 in /  0.0 mm
12:09 75.2 °F /  24.0 °C 68.2 °F /  20.1 °C 29.8 in /  1010.0 hPa ENE 11.5 mph /  18.5 km/h 11.5 mph /  18.5 km/h 79 % 0 in /  0.0 mm
12:14 75 °F /  23.9 °C 68.4 °F /  20.2 °C 29.8 in /  1010.0 hPa ESE 8.1 mph /  13.0 km/h 8.1 mph /  13.0 km/h 80 % 0 in /  0.0 mm
12:19 75 °F /  23.9 °C 68.4 °F /  20.2 °C 29.8 in /  1010.0 hPa ENE 6.2 mph /  10.0 km/h 6.2 mph /  10.0 km/h 80 % 0 in /  0.0 mm
12:24 75.6 °F /  24.2 °C 68.5 °F /  20.3 °C 29.8 in /  1010.0 hPa SE 9.2 mph /  14.8 km/h 9.2 mph /  14.8 km/h 79 % 0 in /  0.0 mm
12:29 75.2 °F /  24.0 °C 68.2 °F /  20.1 °C 29.8 in /  1010.0 hPa ESE 10.4 mph /  16.7 km/h 10.4 mph /  16.7 km/h 79 % 0 in /  0.0 mm
12:34 75.4 °F /  24.1 °C 68 °F /  20.0 °C 29.8 in /  1010.0 hPa SE 10.4 mph /  16.7 km/h 10.4 mph /  16.7 km/h 78 % 0 in /  0.0 mm
12:36 75.4 °F /  24.1 °C 68 °F /  20.0 °C 29.8 in /  1010.0 hPa ESE 8.1 mph /  13.0 km/h 8.1 mph /  13.0 km/h 78 % 0 in /  0.0 mm
12:41 75.4 °F /  24.1 °C 68 °F /  20.0 °C 29.8 in /  1010.0 hPa ESE 8.1 mph /  13.0 km/h 8.1 mph /  13.0 km/h 78 % 0 in /  0.0 mm
12:46 75.4 °F /  24.1 °C 67.6 °F /  19.8 °C 29.8 in /  1010.0 hPa ESE 9.8 mph /  15.8 km/h 9.8 mph /  15.8 km/h 77 % 0 in /  0.0 mm
12:51 75.6 °F /  24.2 °C 67.8 °F /  19.9 °C 29.8 in /  1010.0 hPa ESE 13.8 mph /  22.2 km/h 13.8 mph /  22.2 km/h 77 % 0 in /  0.0 mm
12:56 75.7 °F /  24.3 °C 68 °F /  20.0 °C 29.8 in /  1010.0 hPa ESE 12.7 mph /  20.4 km/h 12.7 mph /  20.4 km/h 77 % 0 in /  0.0 mm
13:01 75.9 °F /  24.4 °C 67.8 °F /  19.9 °C 29.8 in /  1010.0 hPa ESE 11.5 mph /  18.5 km/h 11.5 mph /  18.5 km/h 76 % 0 in /  0.0 mm
13:06 76.3 °F /  24.6 °C 68.2 °F /  20.1 °C 29.8 in /  1010.0 hPa ESE 16.1 mph /  25.9 km/h 16.1 mph /  25.9 km/h 76 % 0 in /  0.0 mm
13:11 76.6 °F /  24.8 °C 67.6 °F /  19.8 °C 29.8 in /  1010.0 hPa ESE 12.7 mph /  20.4 km/h 12.7 mph /  20.4 km/h 74 % 0 in /  0.0 mm
13:16 76.8 °F /  24.9 °C 67.5 °F /  19.7 °C 29.8 in /  1010.0 hPa ESE 13.8 mph /  22.2 km/h 13.8 mph /  22.2 km/h 73 % 0 in /  0.0 mm
13:21 76.8 °F /  24.9 °C 67.5 °F /  19.7 °C 29.8 in /  1010.0 hPa East 9.2 mph /  14.8 km/h 9.2 mph /  14.8 km/h 73 % 0 in /  0.0 mm
13:26 76.3 °F /  24.6 °C 66.9 °F /  19.4 °C 29.8 in /  1010.0 hPa ESE 8.1 mph /  13.0 km/h 8.5 mph /  13.7 km/h 73 % 0 in /  0.0 mm
13:31 76.5 °F /  24.7 °C 67.6 °F /  19.8 °C 29.8 in /  1010.0 hPa ESE 5.8 mph /  9.3 km/h 5.8 mph /  9.3 km/h 74 % 0 in /  0.0 mm
13:36 76.3 °F /  24.6 °C 67.5 °F /  19.7 °C 29.8 in /  1010.0 hPa NNW 4.6 mph /  7.4 km/h 4.6 mph /  7.4 km/h 74 % 0 in /  0.0 mm
13:41 76.1 °F /  24.5 °C 67.3 °F /  19.6 °C 29.8 in /  1010.0 hPa ENE 2.3 mph /  3.7 km/h 2.9 mph /  4.7 km/h 74 % 0 in /  0.0 mm
13:46 75.9 °F /  24.4 °C 66.9 °F /  19.4 °C 29.8 in /  1010.0 hPa ENE 5.8 mph /  9.3 km/h 5.8 mph /  9.3 km/h 74 % 0 in /  0.0 mm
13:51 75.9 °F /  24.4 °C 66.9 °F /  19.4 °C 29.8 in /  1010.0 hPa NNE 5.8 mph /  9.3 km/h 5.8 mph /  9.3 km/h 74 % 0 in /  0.0 mm
13:56 75.9 °F /  24.4 °C 67.5 °F /  19.7 °C 29.8 in /  1010.0 hPa North 5.8 mph /  9.3 km/h 5.8 mph /  9.3 km/h 75 % 0 in /  0.0 mm
14:01 76.3 °F /  24.6 °C 67.8 °F /  19.9 °C 29.8 in /  1010.0 hPa East 6.9 mph /  11.1 km/h 6.9 mph /  11.1 km/h 75 % 0 in /  0.0 mm
14:06 75.9 °F /  24.4 °C 66.9 °F /  19.4 °C 29.8 in /  1010.0 hPa ENE 5.8 mph /  9.3 km/h 5.8 mph /  9.3 km/h 74 % 0 in /  0.0 mm
14:11 76.3 °F /  24.6 °C 67.8 °F /  19.9 °C 29.8 in /  1010.0 hPa NNE 4.6 mph /  7.4 km/h 4.6 mph /  7.4 km/h 75 % 0 in /  0.0 mm
14:16 77 °F /  25.0 °C 67.6 °F /  19.8 °C 29.8 in /  1010.0 hPa ESE 5.8 mph /  9.3 km/h 5.8 mph /  9.3 km/h 73 % 0 in /  0.0 mm
14:21 76.6 °F /  24.8 °C 67.3 °F /  19.6 °C 29.8 in /  1010.0 hPa ESE 6.9 mph /  11.1 km/h 6.9 mph /  11.1 km/h 73 % 0 in /  0.0 mm
14:26 76.8 °F /  24.9 °C 67.5 °F /  19.7 °C 29.8 in /  1010.0 hPa NNE 5.8 mph /  9.3 km/h 5.8 mph /  9.3 km/h 73 % 0 in /  0.0 mm
14:31 77.2 °F /  25.1 °C 67.5 °F /  19.7 °C 29.8 in /  1010.0 hPa East 4.6 mph /  7.4 km/h 4.6 mph /  7.4 km/h 72 % 0 in /  0.0 mm
14:36 77.4 °F /  25.2 °C 67.6 °F /  19.8 °C 29.8 in /  1010.0 hPa ENE 4.6 mph /  7.4 km/h 4.6 mph /  7.4 km/h 72 % 0 in /  0.0 mm
14:41 77.9 °F /  25.5 °C 67.6 °F /  19.8 °C 29.8 in /  1010.0 hPa ESE 4.6 mph /  7.4 km/h 4.6 mph /  7.4 km/h 71 % 0 in /  0.0 mm
14:46 79.2 °F /  26.2 °C 68.9 °F /  20.5 °C 29.8 in /  1010.0 hPa ESE 5.9 mph /  9.5 km/h 5.9 mph /  9.5 km/h 71 % 0 in /  0.0 mm
14:51 78.4 °F /  25.8 °C 67.8 °F /  19.9 °C 29.8 in /  1010.0 hPa ENE 4.6 mph /  7.4 km/h 4.6 mph /  7.4 km/h 70 % 0 in /  0.0 mm
14:56 79.5 °F /  26.4 °C 68.5 °F /  20.3 °C 29.8 in /  1010.0 hPa NE 8.1 mph /  13.0 km/h 8.1 mph /  13.0 km/h 69 % 0 in /  0.0 mm
15:01 79.7 °F /  26.5 °C 68.5 °F /  20.3 °C 29.8 in /  1010.0 hPa NNE 4.6 mph /  7.4 km/h 4.6 mph /  7.4 km/h 69 % 0 in /  0.0 mm
15:06 79.5 °F /  26.4 °C 68 °F /  20.0 °C 29.8 in /  1010.0 hPa ENE 8.1 mph /  13.0 km/h 8.1 mph /  13.0 km/h 68 % 0 in /  0.0 mm
15:11 79.3 °F /  26.3 °C 67.5 °F /  19.7 °C 29.8 in /  1010.0 hPa ESE 6.9 mph /  11.1 km/h 6.9 mph /  11.1 km/h 67 % 0 in /  0.0 mm
15:16 79.9 °F /  26.6 °C 67.8 °F /  19.9 °C 29.8 in /  1010.0 hPa East 4.6 mph /  7.4 km/h 4.6 mph /  7.4 km/h 67 % 0 in /  0.0 mm
15:17 79.7 °F /  26.5 °C 67.8 °F /  19.9 °C 29.8 in /  1010.0 hPa ESE 7.6 mph /  12.2 km/h 7.6 mph /  12.2 km/h 67 % 0 in /  0.0 mm
15:22 80.2 °F /  26.8 °C 67.8 °F /  19.9 °C 29.8 in /  1010.0 hPa NE 5.8 mph /  9.3 km/h 5.8 mph /  9.3 km/h 66 % 0 in /  0.0 mm
15:27 79.9 °F /  26.6 °C 67.1 °F /  19.5 °C 29.8 in /  1010.0 hPa ENE 6.9 mph /  11.1 km/h 6.9 mph /  11.1 km/h 65 % 0 in /  0.0 mm
15:32 79.7 °F /  26.5 °C 66.9 °F /  19.4 °C 29.8 in /  1010.0 hPa North 9.2 mph /  14.8 km/h 9.2 mph /  14.8 km/h 65 % 0 in /  0.0 mm
15:37 80.2 °F /  26.8 °C 66.9 °F /  19.4 °C 29.8 in /  1010.0 hPa NNE 9.2 mph /  14.8 km/h 9.2 mph /  14.8 km/h 64 % 0 in /  0.0 mm
15:42 79.7 °F /  26.5 °C 66.4 °F /  19.1 °C 29.8 in /  1010.0 hPa ENE 9.2 mph /  14.8 km/h 9.2 mph /  14.8 km/h 64 % 0 in /  0.0 mm
15:47 79.9 °F /  26.6 °C 66.6 °F /  19.2 °C 29.8 in /  1010.0 hPa East 6.9 mph /  11.1 km/h 6.9 mph /  11.1 km/h 64 % 0 in /  0.0 mm
15:52 80.2 °F /  26.8 °C 66.9 °F /  19.4 °C 29.8 in /  1010.0 hPa East 6.9 mph /  11.1 km/h 6.9 mph /  11.1 km/h 64 % 0 in /  0.0 mm
15:57 79.9 °F /  26.6 °C 66.6 °F /  19.2 °C 29.8 in /  1010.0 hPa ESE 6.4 mph /  10.3 km/h 6.4 mph /  10.3 km/h 64 % 0 in /  0.0 mm
16:02 79.7 °F /  26.5 °C 66 °F /  18.9 °C 29.8 in /  1010.0 hPa East 8.1 mph /  13.0 km/h 8.1 mph /  13.0 km/h 63 % 0 in /  0.0 mm
16:07 79.5 °F /  26.4 °C 65.5 °F /  18.6 °C 29.8 in /  1010.0 hPa ENE 10.4 mph /  16.7 km/h 10.4 mph /  16.7 km/h 62 % 0 in /  0.0 mm
16:12 79.7 °F /  26.5 °C 65.5 °F /  18.6 °C 29.8 in /  1010.0 hPa East 8.1 mph /  13.0 km/h 8.1 mph /  13.0 km/h 62 % 0 in /  0.0 mm
16:17 80.1 °F /  26.7 °C 65.5 °F /  18.6 °C 29.8 in /  1010.0 hPa WSW 8.1 mph /  13.0 km/h 8.1 mph /  13.0 km/h 61 % 0 in /  0.0 mm
16:22 80.4 °F /  26.9 °C 65.3 °F /  18.5 °C 29.8 in /  1010.0 hPa South 5.8 mph /  9.3 km/h 5.8 mph /  9.3 km/h 60 % 0 in /  0.0 mm
16:27 80.4 °F /  26.9 °C 65.3 °F /  18.5 °C 29.8 in /  1010.0 hPa NNE 7.8 mph /  12.6 km/h 7.8 mph /  12.6 km/h 60 % 0 in /  0.0 mm
16:32 80.6 °F /  27.0 °C 64.6 °F /  18.1 °C 29.8 in /  1010.0 hPa ESE 9.2 mph /  14.8 km/h 9.2 mph /  14.8 km/h 58 % 0 in /  0.0 mm
16:37 81 °F /  27.2 °C 64.2 °F /  17.9 °C 29.8 in /  1010.0 hPa SE 8.1 mph /  13.0 km/h 8.1 mph /  13.0 km/h 57 % 0 in /  0.0 mm
16:42 81.3 °F /  27.4 °C 64 °F /  17.8 °C 29.8 in /  1010.0 hPa East 9.2 mph /  14.8 km/h 9.2 mph /  14.8 km/h 56 % 0 in /  0.0 mm
16:47 81 °F /  27.2 °C 63.9 °F /  17.7 °C 29.8 in /  1010.0 hPa ENE 11.5 mph /  18.5 km/h 11.5 mph /  18.5 km/h 56 % 0 in /  0.0 mm
16:52 80.8 °F /  27.1 °C 63.1 °F /  17.3 °C 29.8 in /  1010.0 hPa SE 12.7 mph /  20.4 km/h 12.7 mph /  20.4 km/h 55 % 0 in /  0.0 mm
16:57 80.2 °F /  26.8 °C 63.1 °F /  17.3 °C 29.8 in /  1010.0 hPa ESE 12.7 mph /  20.4 km/h 12.7 mph /  20.4 km/h 56 % 0 in /  0.0 mm
16:58 80.1 °F /  26.7 °C 63 °F /  17.2 °C 29.8 in /  1010.0 hPa ESE 10.4 mph /  16.7 km/h 10.4 mph /  16.7 km/h 56 % 0 in /  0.0 mm
17:03 80.8 °F /  27.1 °C 63.1 °F /  17.3 °C 29.8 in /  1010.0 hPa ESE 6.9 mph /  11.1 km/h 6.9 mph /  11.1 km/h 55 % 0 in /  0.0 mm
17:08 81 °F /  27.2 °C 63.3 °F /  17.4 °C 29.8 in /  1010.0 hPa ENE 9.2 mph /  14.8 km/h 9.2 mph /  14.8 km/h 55 % 0 in /  0.0 mm
17:13 80.6 °F /  27.0 °C 63 °F /  17.2 °C 29.8 in /  1010.0 hPa SE 8.1 mph /  13.0 km/h 8.1 mph /  13.0 km/h 55 % 0 in /  0.0 mm
17:18 80.4 °F /  26.9 °C 62.8 °F /  17.1 °C 29.8 in /  1010.0 hPa SSE 4.6 mph /  7.4 km/h 4.6 mph /  7.4 km/h 55 % 0 in /  0.0 mm
17:23 80.2 °F /  26.8 °C 62.6 °F /  17.0 °C 29.8 in /  1010.0 hPa South 8.1 mph /  13.0 km/h 8.1 mph /  13.0 km/h 55 % 0 in /  0.0 mm
17:28 79.7 °F /  26.5 °C 62.6 °F /  17.0 °C 29.8 in /  1010.0 hPa SSE 9 mph /  14.5 km/h 9 mph /  14.5 km/h 56 % 0 in /  0.0 mm
17:33 79.5 °F /  26.4 °C 62.4 °F /  16.9 °C 29.8 in /  1010.0 hPa East 5.8 mph /  9.3 km/h 5.8 mph /  9.3 km/h 56 % 0 in /  0.0 mm
17:38 79.9 °F /  26.6 °C 62.2 °F /  16.8 °C 29.8 in /  1010.0 hPa South 10.4 mph /  16.7 km/h 10.4 mph /  16.7 km/h 55 % 0 in /  0.0 mm
17:43 79.3 °F /  26.3 °C 61.2 °F /  16.2 °C 29.8 in /  1010.0 hPa East 9.2 mph /  14.8 km/h 9.2 mph /  14.8 km/h 54 % 0 in /  0.0 mm
17:48 79 °F /  26.1 °C 61 °F /  16.1 °C 29.8 in /  1010.0 hPa SE 5.8 mph /  9.3 km/h 5.8 mph /  9.3 km/h 54 % 0 in /  0.0 mm
17:53 78.8 °F /  26.0 °C 60.3 °F /  15.7 °C 29.8 in /  1010.0 hPa East 4.9 mph /  7.9 km/h 4.9 mph /  7.9 km/h 53 % 0 in /  0.0 mm
17:58 78.6 °F /  25.9 °C 60.1 °F /  15.6 °C 29.8 in /  1010.0 hPa ESE 8.5 mph /  13.7 km/h 8.5 mph /  13.7 km/h 53 % 0 in /  0.0 mm
18:03 78.4 °F /  25.8 °C 59.4 °F /  15.2 °C 29.8 in /  1010.0 hPa SE 9.2 mph /  14.8 km/h 9.2 mph /  14.8 km/h 52 % 0 in /  0.0 mm
18:08 78.3 °F /  25.7 °C 58.6 °F /  14.8 °C 29.8 in /  1010.0 hPa East 11.5 mph /  18.5 km/h 11.5 mph /  18.5 km/h 51 % 0 in /  0.0 mm
18:13 78.3 °F /  25.7 °C 59.2 °F /  15.1 °C 29.8 in /  1010.0 hPa ESE 6.9 mph /  11.1 km/h 6.9 mph /  11.1 km/h 52 % 0 in /  0.0 mm
18:18 78.4 °F /  25.8 °C 59.4 °F /  15.2 °C 29.8 in /  1010.7 hPa ESE 10.4 mph /  16.7 km/h 10.4 mph /  16.7 km/h 52 % 0 in /  0.0 mm
18:23 78.1 °F /  25.6 °C 59 °F /  15.0 °C 29.8 in /  1010.7 hPa East 10.4 mph /  16.7 km/h 10.4 mph /  16.7 km/h 52 % 0 in /  0.0 mm
18:28 78.1 °F /  25.6 °C 58.5 °F /  14.7 °C 29.8 in /  1010.7 hPa ESE 6.9 mph /  11.1 km/h 6.9 mph /  11.1 km/h 51 % 0 in /  0.0 mm
18:33 78.1 °F /  25.6 °C 58.5 °F /  14.7 °C 29.8 in /  1010.7 hPa East 11.5 mph /  18.5 km/h 11.5 mph /  18.5 km/h 51 % 0 in /  0.0 mm
18:38 78.1 °F /  25.6 °C 58.5 °F /  14.7 °C 29.8 in /  1010.7 hPa ESE 6.9 mph /  11.1 km/h 6.9 mph /  11.1 km/h 51 % 0 in /  0.0 mm
18:43 78.1 °F /  25.6 °C 58.5 °F /  14.7 °C 29.8 in /  1010.7 hPa ESE 6.9 mph /  11.1 km/h 6.9 mph /  11.1 km/h 51 % 0 in /  0.0 mm
18:48 78.1 °F /  25.6 °C 58.5 °F /  14.7 °C 29.8 in /  1010.7 hPa SE 4.6 mph /  7.4 km/h 4.6 mph /  7.4 km/h 51 % 0 in /  0.0 mm
18:53 78.1 °F /  25.6 °C 58.5 °F /  14.7 °C 29.8 in /  1010.7 hPa East 4.9 mph /  7.9 km/h 4.9 mph /  7.9 km/h 51 % 0 in /  0.0 mm
18:58 77.9 °F /  25.5 °C 58.3 °F /  14.6 °C 29.8 in /  1010.7 hPa ENE 8.1 mph /  13.0 km/h 8.1 mph /  13.0 km/h 51 % 0 in /  0.0 mm
19:03 77.7 °F /  25.4 °C 57.6 °F /  14.2 °C 29.9 in /  1011.7 hPa ESE 10.4 mph /  16.7 km/h 10.4 mph /  16.7 km/h 50 % 0 in /  0.0 mm
19:08 77.9 °F /  25.5 °C 57.7 °F /  14.3 °C 29.9 in /  1011.7 hPa South 5.8 mph /  9.3 km/h 5.8 mph /  9.3 km/h 50 % 0 in /  0.0 mm
19:13 77.7 °F /  25.4 °C 57.6 °F /  14.2 °C 29.9 in /  1011.7 hPa ESE 8.1 mph /  13.0 km/h 8.1 mph /  13.0 km/h 50 % 0 in /  0.0 mm
19:18 77.2 °F /  25.1 °C 57.7 °F /  14.3 °C 29.9 in /  1011.7 hPa ESE 10.5 mph /  16.9 km/h 10.5 mph /  16.9 km/h 51 % 0 in /  0.0 mm
19:23 77.2 °F /  25.1 °C 57.7 °F /  14.3 °C 29.9 in /  1011.7 hPa ENE 5.6 mph /  9.0 km/h 5.6 mph /  9.0 km/h 51 % 0 in /  0.0 mm
19:28 77 °F /  25.0 °C 57.6 °F /  14.2 °C 29.9 in /  1011.7 hPa SSE 3.5 mph /  5.6 km/h 3.5 mph /  5.6 km/h 51 % 0 in /  0.0 mm
19:33 77 °F /  25.0 °C 57.6 °F /  14.2 °C 29.9 in /  1011.7 hPa ENE 5.8 mph /  9.3 km/h 5.8 mph /  9.3 km/h 51 % 0 in /  0.0 mm
19:38 76.8 °F /  24.9 °C 57.9 °F /  14.4 °C 29.9 in /  1011.7 hPa East 5.8 mph /  9.3 km/h 5.8 mph /  9.3 km/h 52 % 0 in /  0.0 mm
19:43 76.6 °F /  24.8 °C 58.3 °F /  14.6 °C 29.9 in /  1011.7 hPa SSE 4.6 mph /  7.4 km/h 4.6 mph /  7.4 km/h 53 % 0 in /  0.0 mm
19:48 76.6 °F /  24.8 °C 58.3 °F /  14.6 °C 29.9 in /  1011.7 hPa ESE 5.8 mph /  9.3 km/h 5.8 mph /  9.3 km/h 53 % 0 in /  0.0 mm
19:53 76.5 °F /  24.7 °C 58.1 °F /  14.5 °C 29.9 in /  1011.7 hPa ESE 4.6 mph /  7.4 km/h 4.6 mph /  7.4 km/h 53 % 0 in /  0.0 mm
19:55 69.8 °F /  21.0 °C 59.5 °F /  15.3 °C 30 in /  1014.8 hPa WSW 1 mph /  1.6 km/h 2 mph /  3.2 km/h 70 % 0 in /  0.0 mm
19:58 76.3 °F /  24.6 °C 57.9 °F /  14.4 °C 29.9 in /  1011.7 hPa SE 4.6 mph /  7.4 km/h 4.6 mph /  7.4 km/h 53 % 0 in /  0.0 mm
20:03 76.3 °F /  24.6 °C 58.5 °F /  14.7 °C 29.9 in /  1011.7 hPa East 4.6 mph /  7.4 km/h 4.6 mph /  7.4 km/h 54 % 0 in /  0.0 mm
20:05 76.1 °F /  24.5 °C 58.3 °F /  14.6 °C 29.9 in /  1011.7 hPa SE 6.9 mph /  11.1 km/h 6.9 mph /  11.1 km/h 54 % 0 in /  0.0 mm
20:10 75.9 °F /  24.4 °C 58.1 °F /  14.5 °C 29.9 in /  1011.7 hPa SE 5.8 mph /  9.3 km/h 5.8 mph /  9.3 km/h 54 % 0 in /  0.0 mm
20:15 75.9 °F /  24.4 °C 58.1 °F /  14.5 °C 29.9 in /  1011.7 hPa SE 6.9 mph /  11.1 km/h 6.9 mph /  11.1 km/h 54 % 0 in /  0.0 mm
20:20 75.7 °F /  24.3 °C 58.5 °F /  14.7 °C 29.9 in /  1011.7 hPa East 4.6 mph /  7.4 km/h 4.6 mph /  7.4 km/h 55 % 0 in /  0.0 mm
20:25 75.6 °F /  24.2 °C 58.3 °F /  14.6 °C 29.9 in /  1011.7 hPa NE 4.6 mph /  7.4 km/h 4.6 mph /  7.4 km/h 55 % 0 in /  0.0 mm
20:30 75.6 °F /  24.2 °C 58.3 °F /  14.6 °C 29.9 in /  1012.8 hPa ENE 5.8 mph /  9.3 km/h 5.8 mph /  9.3 km/h 55 % 0 in /  0.0 mm
20:35 75.4 °F /  24.1 °C 58.6 °F /  14.8 °C 29.9 in /  1012.8 hPa ESE 5.8 mph /  9.3 km/h 5.8 mph /  9.3 km/h 56 % 0 in /  0.0 mm
20:37 75.4 °F /  24.1 °C 58.6 °F /  14.8 °C 29.9 in /  1012.8 hPa ESE 3.5 mph /  5.6 km/h 3.5 mph /  5.6 km/h 56 % 0 in /  0.0 mm
20:42 75.2 °F /  24.0 °C 58.5 °F /  14.7 °C 29.9 in /  1012.8 hPa NE 6.9 mph /  11.1 km/h 6.9 mph /  11.1 km/h 56 % 0 in /  0.0 mm
20:45 68.9 °F /  20.5 °C 59.5 °F /  15.3 °C 30 in /  1014.8 hPa Calm   2 mph /  3.2 km/h 72 % 0 in /  0.0 mm
20:47 75 °F /  23.9 °C 59.2 °F /  15.1 °C 29.9 in /  1012.8 hPa ENE 3.5 mph /  5.6 km/h 3.5 mph /  5.6 km/h 58 % 0 in /  0.0 mm
20:52 74.8 °F /  23.8 °C 59.2 °F /  15.1 °C 29.9 in /  1012.8 hPa East 4.6 mph /  7.4 km/h 4.6 mph /  7.4 km/h 58 % 0 in /  0.0 mm
20:55 68.7 °F /  20.4 °C 59.7 °F /  15.4 °C 30 in /  1014.8 hPa Calm     73 % 0 in /  0.0 mm
20:57 74.7 °F /  23.7 °C 58.8 °F /  14.9 °C 29.9 in /  1012.8 hPa East 5.8 mph /  9.3 km/h 5.8 mph /  9.3 km/h 58 % 0 in /  0.0 mm
21:02 74.7 °F /  23.7 °C 59.4 °F /  15.2 °C 29.9 in /  1013.8 hPa SE 3.5 mph /  5.6 km/h 3.5 mph /  5.6 km/h 59 % 0 in /  0.0 mm
21:05 68.5 °F /  20.3 °C 59.5 °F /  15.3 °C 30 in /  1014.8 hPa East 1 mph /  1.6 km/h 3 mph /  4.8 km/h 73 % 0 in /  0.0 mm
21:07 74.5 °F /  23.6 °C 59.2 °F /  15.1 °C 29.9 in /  1013.8 hPa ENE 3.6 mph /  5.8 km/h 3.6 mph /  5.8 km/h 59 % 0 in /  0.0 mm
21:12 74.5 °F /  23.6 °C 59.2 °F /  15.1 °C 29.9 in /  1013.8 hPa ENE 2.6 mph /  4.2 km/h 2.6 mph /  4.2 km/h 59 % 0 in /  0.0 mm
21:15 68.2 °F /  20.1 °C 59.2 °F /  15.1 °C 30 in /  1014.8 hPa East 2 mph /  3.2 km/h 3 mph /  4.8 km/h 73 % 0 in /  0.0 mm
21:17 74.3 °F /  23.5 °C 59 °F /  15.0 °C 29.9 in /  1013.8 hPa ESE 2.3 mph /  3.7 km/h   59 % 0 in /  0.0 mm
21:22 74.3 °F /  23.5 °C 59 °F /  15.0 °C 29.9 in /  1013.8 hPa East 5.8 mph /  9.3 km/h 5.8 mph /  9.3 km/h 59 % 0 in /  0.0 mm
21:25 67.8 °F /  19.9 °C 59.2 °F /  15.1 °C 30 in /  1014.8 hPa ENE 1 mph /  1.6 km/h 3 mph /  4.8 km/h 74 % 0 in /  0.0 mm
21:27 74.1 °F /  23.4 °C 58.8 °F /  14.9 °C 29.9 in /  1013.8 hPa East 2.9 mph /  4.7 km/h 2.9 mph /  4.7 km/h 59 % 0 in /  0.0 mm
21:32 73.9 °F /  23.3 °C 59.2 °F /  15.1 °C 29.9 in /  1013.8 hPa ESE 4.6 mph /  7.4 km/h 4.6 mph /  7.4 km/h 60 % 0 in /  0.0 mm
21:37 73.8 °F /  23.2 °C 59 °F /  15.0 °C 29.9 in /  1013.8 hPa ESE 4.6 mph /  7.4 km/h 4.6 mph /  7.4 km/h 60 % 0 in /  0.0 mm
21:40 67.8 °F /  19.9 °C 59.5 °F /  15.3 °C 30 in /  1014.8 hPa Calm   2 mph /  3.2 km/h 75 % 0 in /  0.0 mm
21:42 73.8 °F /  23.2 °C 59 °F /  15.0 °C 29.9 in /  1013.8 hPa ENE 3.1 mph /  5.0 km/h 3.1 mph /  5.0 km/h 60 % 0 in /  0.0 mm
21:47 73.6 °F /  23.1 °C 58.8 °F /  14.9 °C 29.9 in /  1013.8 hPa NNE 2.3 mph /  3.7 km/h 2.3 mph /  3.7 km/h 60 % 0 in /  0.0 mm
21:50 67.8 °F /  19.9 °C 59.5 °F /  15.3 °C 30 in /  1014.8 hPa Calm   2 mph /  3.2 km/h 75 % 0 in /  0.0 mm
21:52 73.4 °F /  23.0 °C 59.2 °F /  15.1 °C 29.9 in /  1013.8 hPa ESE 3.6 mph /  5.8 km/h 3.6 mph /  5.8 km/h 61 % 0 in /  0.0 mm
21:57 73.4 °F /  23.0 °C 59.2 °F /  15.1 °C 29.9 in /  1013.8 hPa East 2.3 mph /  3.7 km/h 2.3 mph /  3.7 km/h 61 % 0 in /  0.0 mm
22:02 73.4 °F /  23.0 °C 59.2 °F /  15.1 °C 29.9 in /  1013.8 hPa East 3.5 mph /  5.6 km/h 3.5 mph /  5.6 km/h 61 % 0 in /  0.0 mm
22:07 73.6 °F /  23.1 °C 59.4 °F /  15.2 °C 29.9 in /  1013.8 hPa East 4.6 mph /  7.4 km/h 4.6 mph /  7.4 km/h 61 % 0 in /  0.0 mm
22:10 67.5 °F /  19.7 °C 59.4 °F /  15.2 °C 30 in /  1014.8 hPa Calm   2 mph /  3.2 km/h 75 % 0 in /  0.0 mm
22:12 73.6 °F /  23.1 °C 59.4 °F /  15.2 °C 29.9 in /  1013.8 hPa SW 2.3 mph /  3.7 km/h 2.3 mph /  3.7 km/h 61 % 0 in /  0.0 mm
22:17 73.4 °F /  23.0 °C 59.2 °F /  15.1 °C 29.9 in /  1013.8 hPa South 2.3 mph /  3.7 km/h 2.3 mph /  3.7 km/h 61 % 0 in /  0.0 mm
22:20 67.8 °F /  19.9 °C 59.5 °F /  15.3 °C 30 in /  1014.8 hPa SW 1 mph /  1.6 km/h 2 mph /  3.2 km/h 75 % 0 in /  0.0 mm
22:22 73.4 °F /  23.0 °C 59.2 °F /  15.1 °C 29.9 in /  1013.8 hPa SE 2.4 mph /  3.9 km/h 2.4 mph /  3.9 km/h 61 % 0 in /  0.0 mm
22:27 73.4 °F /  23.0 °C 59.2 °F /  15.1 °C 29.9 in /  1013.8 hPa SSW 2.3 mph /  3.7 km/h   61 % 0 in /  0.0 mm
22:30 67.8 °F /  19.9 °C 59.2 °F /  15.1 °C 30 in /  1014.8 hPa Calm   2 mph /  3.2 km/h 74 % 0 in /  0.0 mm
22:32 73.2 °F /  22.9 °C 59 °F /  15.0 °C 30 in /  1014.8 hPa SW 1.2 mph /  1.9 km/h 1.2 mph /  1.9 km/h 61 % 0 in /  0.0 mm
22:37 72.9 °F /  22.7 °C 59.2 °F /  15.1 °C 30 in /  1014.8 hPa SW 2.3 mph /  3.7 km/h 2.3 mph /  3.7 km/h 62 % 0 in /  0.0 mm
22:40 67.8 °F /  19.9 °C 58.1 °F /  14.5 °C 30 in /  1014.8 hPa Calm   2 mph /  3.2 km/h 71 % 0 in /  0.0 mm
22:42 72.5 °F /  22.5 °C 58.6 °F /  14.8 °C 30 in /  1014.8 hPa Calm     62 % 0 in /  0.0 mm
22:47 72.5 °F /  22.5 °C 58.6 °F /  14.8 °C 29.9 in /  1013.8 hPa ENE 1.2 mph /  1.9 km/h 1.4 mph /  2.3 km/h 62 % 0 in /  0.0 mm
22:50 67.8 °F /  19.9 °C 57.4 °F /  14.1 °C 30 in /  1014.8 hPa Calm   1 mph /  1.6 km/h 69 % 0 in /  0.0 mm
22:52 72.3 °F /  22.4 °C 58.6 °F /  14.8 °C 29.9 in /  1013.8 hPa Calm     62 % 0 in /  0.0 mm
22:57 72.1 °F /  22.3 °C 58.8 °F /  14.9 °C 29.9 in /  1013.8 hPa SW 1.2 mph /  1.9 km/h 1.2 mph /  1.9 km/h 63 % 0 in /  0.0 mm
23:00 67.6 °F /  19.8 °C 56.3 °F /  13.5 °C 30 in /  1014.8 hPa NE 1 mph /  1.6 km/h 2 mph /  3.2 km/h 67 % 0 in /  0.0 mm
23:02 72.1 °F /  22.3 °C 58.8 °F /  14.9 °C 29.9 in /  1013.8 hPa SW 2.3 mph /  3.7 km/h 2.3 mph /  3.7 km/h 63 % 0 in /  0.0 mm
23:07 72.1 °F /  22.3 °C 58.8 °F /  14.9 °C 29.9 in /  1013.8 hPa Calm     63 % 0 in /  0.0 mm
23:10 67.8 °F /  19.9 °C 56.5 °F /  13.6 °C 29.9 in /  1013.8 hPa East 1 mph /  1.6 km/h 2 mph /  3.2 km/h 67 % 0 in /  0.0 mm
23:12 72 °F /  22.2 °C 58.6 °F /  14.8 °C 29.9 in /  1013.8 hPa Calm     63 % 0 in /  0.0 mm
23:17 72 °F /  22.2 °C 59.2 °F /  15.1 °C 30 in /  1014.8 hPa NE 2 mph /  3.2 km/h 2 mph /  3.2 km/h 64 % 0 in /  0.0 mm
23:20 67.6 °F /  19.8 °C 56.3 °F /  13.5 °C 29.9 in /  1013.8 hPa Calm   2 mph /  3.2 km/h 67 % 0 in /  0.0 mm
23:22 71.8 °F /  22.1 °C 58.8 °F /  14.9 °C 30 in /  1014.8 hPa Calm     64 % 0 in /  0.0 mm
23:27 71.8 °F /  22.1 °C 58.8 °F /  14.9 °C 30 in /  1014.8 hPa NW 1.2 mph /  1.9 km/h 1.2 mph /  1.9 km/h 64 % 0 in /  0.0 mm
23:30 67.5 °F /  19.7 °C 56.5 °F /  13.6 °C 29.9 in /  1013.8 hPa NE 1 mph /  1.6 km/h 2 mph /  3.2 km/h 68 % 0 in /  0.0 mm
23:32 71.6 °F /  22.0 °C 58.8 °F /  14.9 °C 30 in /  1014.8 hPa Calm     64 % 0 in /  0.0 mm
23:37 71.6 °F /  22.0 °C 59.2 °F /  15.1 °C 30 in /  1014.8 hPa Calm     65 % 0 in /  0.0 mm
23:40 67.1 °F /  19.5 °C 56.1 °F /  13.4 °C 29.9 in /  1013.8 hPa SW 1 mph /  1.6 km/h 1 mph /  1.6 km/h 68 % 0 in /  0.0 mm
23:42 71.4 °F /  21.9 °C 59.5 °F /  15.3 °C 30 in /  1014.8 hPa Calm     66 % 0 in /  0.0 mm
23:47 71.2 °F /  21.8 °C 59.4 °F /  15.2 °C 30 in /  1014.8 hPa Calm     66 % 0 in /  0.0 mm
23:50 67.1 °F /  19.5 °C 56.7 °F /  13.7 °C 29.9 in /  1013.8 hPa Calm   1 mph /  1.6 km/h 69 % 0 in /  0.0 mm
23:52 71.1 °F /  21.7 °C 59.2 °F /  15.1 °C 30 in /  1014.8 hPa SW 2.3 mph /  3.7 km/h 2.3 mph /  3.7 km/h 66 % 0 in /  0.0 mm
23:57 70.9 °F /  21.6 °C 59 °F /  15.0 °C 30 in /  1014.8 hPa SW 1.4 mph /  2.3 km/h 1.4 mph /  2.3 km/h 66 % 0 in /  0.0 mm
Meteo Sesrovires
Elogis d' Weather Underground - 3.75 mb

Guio original per  Jim McMurry - jmcmurry@mwt.net Adaptat per a la plantilla per  Wim van der Kuil - Leuven-Template.eu

Trobareu la nostra informacio del temps tambe a:

Weather Underground

AWEKAS